Terminal Aerodrome Forecast
Issued by NWS Charleston, SC

Home | Current Version | Previous Version | Text Only | Print | Product List | Glossary On
Versions: 1 2 3 4 5 6 7 8 9 10 11 12 13 14 15 16 17 18 19 20 21 22 23 24 25 26 27
956
FTUS42 KCHS 192320
TAFCHS
TAF
KCHS 192320Z 2000/2024 14006KT P6SM FEW035 SCT250
     FM200400 11003KT 5SM BR SCT007 BKN015
     FM200900 09003KT 2SM BR OVC007
     FM201400 14005KT 5SM BR SCT007 OVC015
     FM201500 16009KT P6SM BKN035=

USA.gov is the U.S. government's official web portal to all federal, state and local government web resources and services.